Time;durP1;ratioP1;P1;durP2;ratioP2;P2;SDS_P1;SDS_P2;PMS_P1;PMS_P2;Temp;Humidity;BMP_temperature;BMP_pressure;BME280_temperature;BME280_humidity;BME280_pressure;Samples;Min_cycle;Max_cycle;Signal;HPM_P1;HPM_P2
2021/08/07 00:01:07;;;;;;;22.27;11.63;;;;;;;29.61;40.22;99959.47;4999712;28;20060;-68
2021/08/07 00:03:34;;;;;;;23.67;12.45;;;;;;;29.62;40.32;99950.31;5006988;28;20049;-68
2021/08/07 00:06:02;;;;;;;22.63;12.50;;;;;;;29.52;40.39;99960.19;5007757;28;20038;-67
2021/08/07 00:08:29;;;;;;;20.45;11.70;;;;;;;29.52;40.61;99962.91;5009294;28;20419;-68
2021/08/07 00:10:56;;;;;;;17.77;12.43;;;;;;;29.52;40.66;99980.09;5007646;28;20044;-69
2021/08/07 00:13:24;;;;;;;22.27;11.70;;;;;;;29.37;40.94;99985.81;5007716;28;20129;-69
2021/08/07 00:15:53;;;;;;;20.30;13.68;;;;;;;29.19;41.46;99988.03;5007850;28;20068;-67
2021/08/07 00:18:21;;;;;;;25.52;14.73;;;;;;;29.20;41.57;99995.19;5008689;28;20053;-67
2021/08/07 00:20:48;;;;;;;23.73;13.90;;;;;;;29.25;41.83;99993.00;5007690;28;20046;-68
2021/08/07 00:23:17;;;;;;;27.33;15.13;;;;;;;29.26;42.05;99984.75;5000752;28;20049;-68
2021/08/07 00:25:44;;;;;;;24.38;14.68;;;;;;;29.36;42.29;99979.50;5008269;28;20045;-68
2021/08/07 00:28:12;;;;;;;22.77;13.88;;;;;;;29.41;42.38;99960.09;5007590;28;20504;-69
2021/08/07 00:30:39;;;;;;;23.30;13.38;;;;;;;29.40;42.54;99961.13;4991187;28;20042;-68
2021/08/07 00:33:08;;;;;;;29.13;14.55;;;;;;;29.42;43.12;99950.97;5007772;28;20061;-68
2021/08/07 00:35:36;;;;;;;29.05;15.15;;;;;;;29.42;43.34;99940.09;5008991;28;20119;-68
2021/08/07 00:38:03;;;;;;;21.67;14.00;;;;;;;29.41;43.62;99944.66;5006869;28;20385;-68
2021/08/07 00:40:30;;;;;;;23.65;13.65;;;;;;;29.41;43.85;99947.38;5008504;28;20049;-69
2021/08/07 00:42:58;;;;;;;28.25;15.23;;;;;;;29.42;43.95;99940.09;5006001;28;20053;-69
2021/08/07 00:45:25;;;;;;;25.02;14.80;;;;;;;29.43;44.21;99945.41;5008368;28;20507;-68
2021/08/07 00:47:53;;;;;;;23.52;14.35;;;;;;;29.42;44.31;99948.25;5006692;28;20365;-69
2021/08/07 00:50:22;;;;;;;25.75;14.07;;;;;;;29.42;44.75;99950.97;5008135;28;20049;-69
2021/08/07 00:52:49;;;;;;;22.92;14.27;;;;;;;29.41;44.73;99965.53;5007711;28;20048;-68
2021/08/07 00:55:16;;;;;;;27.63;14.00;;;;;;;29.39;44.93;99970.25;5000411;28;20065;-68
2021/08/07 00:57:44;;;;;;;26.27;12.95;;;;;;;29.35;44.87;99960.56;5008748;28;20045;-69
2021/08/07 01:00:12;;;;;;;25.05;14.40;;;;;;;29.36;44.80;99968.63;5005458;28;20046;-69
2021/08/07 01:02:48;;;;;;;25.98;14.40;;;;;;;29.36;44.93;99959.59;5008661;28;20045;-68
2021/08/07 01:05:24;;;;;;;20.65;13.75;;;;;;;29.35;44.79;99955.13;5004648;28;20053;-68
2021/08/07 01:08:00;;;;;;;25.88;13.60;;;;;;;29.31;44.97;99952.63;5004945;28;20061;-70
2021/08/07 01:10:34;;;;;;;24.35;14.65;;;;;;;29.30;45.00;99953.59;5003926;28;20053;-70
2021/08/07 01:13:08;;;;;;;27.20;14.85;;;;;;;29.28;44.89;99951.97;5007556;28;20053;-68
2021/08/07 01:15:39;;;;;;;20.35;13.95;;;;;;;29.29;45.09;99960.03;5007737;28;20042;-70
2021/08/07 01:18:11;;;;;;;21.98;13.02;;;;;;;29.28;44.97;99951.97;5006792;28;20125;-71
2021/08/07 01:20:46;;;;;;;25.60;14.48;;;;;;;29.21;45.29;99959.72;5007306;28;20046;-68
2021/08/07 01:23:20;;;;;;;25.27;13.30;;;;;;;29.20;45.39;99963.44;5007023;28;20041;-68
2021/08/07 01:25:52;;;;;;;23.52;13.25;;;;;;;29.24;45.23;99958.63;5006950;28;20041;-68
2021/08/07 01:28:23;;;;;;;24.13;12.45;;;;;;;29.25;45.32;99963.97;5001139;28;20045;-69
2021/08/07 01:30:51;;;;;;;24.88;13.20;;;;;;;29.24;45.64;99964.06;5006097;28;20042;-68
2021/08/07 01:33:20;;;;;;;20.08;12.15;;;;;;;29.23;45.35;99959.59;5007402;28;20046;-69
2021/08/07 01:35:50;;;;;;;25.15;13.27;;;;;;;29.25;45.42;99965.81;5006995;28;20042;-69
2021/08/07 01:38:17;;;;;;;23.65;13.40;;;;;;;29.26;45.23;99971.16;5000997;28;20049;-69
2021/08/07 01:40:45;;;;;;;21.67;12.57;;;;;;;29.23;45.43;99963.19;5004958;28;20046;-69
2021/08/07 01:43:12;;;;;;;23.73;12.93;;;;;;;29.23;45.33;99959.59;5005998;28;20503;-69
2021/08/07 01:45:42;;;;;;;25.35;13.77;;;;;;;29.23;45.45;99960.47;5007360;28;20060;-68
2021/08/07 01:48:16;;;;;;;24.08;13.00;;;;;;;29.22;45.46;99960.59;5006675;28;20042;-68
2021/08/07 01:50:48;;;;;;;29.73;12.63;;;;;;;29.14;45.66;99958.47;5011284;28;20044;-69
2021/08/07 01:53:20;;;;;;;25.48;13.45;;;;;;;29.07;45.96;99959.91;5005494;28;20034;-68
2021/08/07 01:55:51;;;;;;;23.85;13.65;;;;;;;29.04;46.10;99960.09;5010006;28;20042;-69
2021/08/07 01:58:32;;;;;;;23.45;13.50;;;;;;;29.02;46.28;99962.06;5005126;28;20042;-68
2021/08/07 02:01:02;;;;;;;26.45;14.25;;;;;;;29.05;46.29;99959.13;5010378;28;20044;-69
2021/08/07 02:03:33;;;;;;;24.67;13.48;;;;;;;29.08;46.23;99964.31;5009636;28;20049;-69
2021/08/07 02:06:01;;;;;;;27.23;14.77;;;;;;;29.06;46.33;99960.88;5010497;28;20042;-69
2021/08/07 02:08:29;;;;;;;24.30;13.77;;;;;;;29.05;46.28;99956.41;5011996;28;20046;-69
2021/08/07 02:10:59;;;;;;;25.10;12.77;;;;;;;29.07;46.41;99956.31;5010324;28;20060;-69
2021/08/07 02:13:27;;;;;;;22.98;12.27;;;;;;;29.06;46.50;99960.00;5011150;28;20034;-69
2021/08/07 02:15:56;;;;;;;22.50;13.02;;;;;;;28.97;46.42;99953.38;5009049;28;20050;-69
2021/08/07 02:18:27;;;;;;;26.27;13.55;;;;;;;28.88;46.88;99954.91;5009714;28;20046;-69
2021/08/07 02:20:56;;;;;;;28.25;13.27;;;;;;;28.88;46.76;99949.47;5009117;28;20042;-68
2021/08/07 02:23:24;;;;;;;30.48;14.77;;;;;;;28.93;46.57;99960.03;5011658;28;20049;-69
2021/08/07 02:25:56;;;;;;;19.77;12.23;;;;;;;28.97;46.61;99966.09;5009625;28;20045;-69
2021/08/07 02:28:24;;;;;;;26.58;13.20;;;;;;;28.95;46.51;99963.50;5003748;28;20045;-69
2021/08/07 02:30:52;;;;;;;21.63;13.05;;;;;;;28.91;46.66;99952.00;5009600;28;20046;-69
2021/08/07 02:33:22;;;;;;;26.58;12.98;;;;;;;28.90;46.67;99954.81;5010778;28;20045;-68
2021/08/07 02:35:52;;;;;;;24.60;12.95;;;;;;;28.86;46.73;99958.75;5007976;28;20037;-69
2021/08/07 02:38:20;;;;;;;24.92;13.68;;;;;;;28.82;46.67;99952.66;5003539;28;20500;-68
2021/08/07 02:40:48;;;;;;;27.17;12.90;;;;;;;28.77;46.75;99956.69;5010178;28;20046;-68
2021/08/07 02:43:16;;;;;;;22.85;13.75;;;;;;;28.70;46.66;99969.81;5009888;28;20052;-69
2021/08/07 02:45:45;;;;;;;23.17;12.45;;;;;;;28.68;46.77;99965.50;5008721;28;20053;-69
2021/08/07 02:48:13;;;;;;;21.92;13.18;;;;;;;28.66;46.73;99970.16;5011252;28;20060;-68
2021/08/07 02:50:42;;;;;;;24.75;12.57;;;;;;;28.63;46.81;99975.78;5009817;28;20053;-69
2021/08/07 02:53:12;;;;;;;22.48;12.20;;;;;;;28.54;46.89;99972.78;5010020;28;20455;-68
2021/08/07 02:55:40;;;;;;;24.90;12.27;;;;;;;28.35;47.47;99972.34;5010464;28;20045;-68
2021/08/07 02:58:08;;;;;;;25.67;12.98;;;;;;;28.34;47.57;99976.03;5006712;28;20049;-69
2021/08/07 03:00:38;;;;;;;25.98;12.65;;;;;;;28.35;47.35;99971.47;5007694;28;20057;-68
2021/08/07 03:03:06;;;;;;;23.88;13.18;;;;;;;28.33;47.52;99981.56;5010223;28;20058;-68
2021/08/07 03:05:33;;;;;;;24.42;12.88;;;;;;;28.34;47.55;99983.31;5009277;28;20046;-68
2021/08/07 03:08:01;;;;;;;22.65;12.10;;;;;;;28.30;47.68;99998.94;5008831;28;20053;-68
2021/08/07 03:10:30;;;;;;;28.10;14.23;;;;;;;28.23;47.88;100007.59;5008614;28;20408;-69
2021/08/07 03:12:59;;;;;;;22.83;13.07;;;;;;;28.14;48.15;100029.00;5006846;28;20042;-68
2021/08/07 03:15:27;;;;;;;24.40;13.00;;;;;;;28.11;48.14;100028.28;5009894;28;20041;-69
2021/08/07 03:17:54;;;;;;;25.23;14.07;;;;;;;28.08;48.22;100032.13;5008758;28;20049;-69
2021/08/07 03:20:30;;;;;;;24.58;12.98;;;;;;;28.10;47.96;100040.13;5008282;28;20061;-69
2021/08/07 03:22:58;;;;;;;25.27;13.35;;;;;;;28.03;48.37;100031.53;5007574;28;20110;-69
2021/08/07 03:25:26;;;;;;;26.20;13.77;;;;;;;28.01;48.04;100038.94;5009260;28;20038;-69
2021/08/07 03:27:55;;;;;;;29.95;12.82;;;;;;;28.05;48.02;100053.16;5003222;28;20512;-69
2021/08/07 03:30:23;;;;;;;22.77;12.63;;;;;;;28.08;47.76;100051.13;5009554;28;20050;-69
2021/08/07 03:32:51;;;;;;;29.83;13.43;;;;;;;28.09;48.10;100054.69;5008866;28;20053;-71
2021/08/07 03:35:19;;;;;;;22.35;13.15;;;;;;;28.08;48.15;100047.53;5001842;28;20049;-71
2021/08/07 03:37:46;;;;;;;30.00;13.68;;;;;;;28.02;48.56;100062.38;5009460;28;20121;-71
2021/08/07 03:40:15;;;;;;;25.40;12.45;;;;;;;28.01;48.58;100071.50;5009538;28;20038;-71
2021/08/07 03:42:43;;;;;;;22.95;12.73;;;;;;;28.01;48.64;100065.19;5008917;28;20518;-70
2021/08/07 03:45:13;;;;;;;22.85;14.10;;;;;;;28.01;49.23;100065.19;5009474;28;20121;-70
2021/08/07 03:47:46;;;;;;;26.15;13.57;;;;;;;27.94;49.59;100061.16;5009298;28;20053;-70
2021/08/07 03:50:14;;;;;;;25.80;14.75;;;;;;;27.86;49.82;100061.66;5007482;28;20042;-71
2021/08/07 03:52:41;;;;;;;25.88;14.65;;;;;;;28.01;50.04;100065.19;5009279;28;20046;-71
2021/08/07 03:55:10;;;;;;;24.92;13.73;;;;;;;28.12;50.04;100062.63;5005041;28;20113;-69
2021/08/07 03:57:51;;;;;;;32.95;15.70;;;;;;;28.15;50.45;100065.19;5004046;28;20137;-69
2021/08/07 04:00:22;;;;;;;27.90;15.38;;;;;;;28.24;50.92;100060.94;5002267;28;20068;-67
2021/08/07 04:02:49;;;;;;;31.20;16.15;;;;;;;28.39;50.72;100057.16;5003467;28;20041;-69
2021/08/07 04:05:17;;;;;;;23.13;15.68;;;;;;;28.49;51.29;100059.13;5002291;28;20053;-69
2021/08/07 04:07:45;;;;;;;27.50;17.15;;;;;;;28.65;51.18;100068.94;5008873;28;20125;-69
2021/08/07 04:10:13;;;;;;;33.53;17.05;;;;;;;28.78;51.22;100075.28;5006946;28;20049;-69
2021/08/07 04:12:42;;;;;;;29.02;17.77;;;;;;;28.85;51.29;100072.03;5008216;28;20041;-68
2021/08/07 04:15:11;;;;;;;30.08;18.48;;;;;;;28.94;51.50;100065.06;5007345;28;20046;-69
2021/08/07 04:17:41;;;;;;;33.78;19.05;;;;;;;29.05;51.62;100062.44;5008548;28;20139;-69
2021/08/07 04:20:10;;;;;;;34.35;19.52;;;;;;;29.15;51.64;100063.50;5008716;28;20045;-69
2021/08/07 04:22:38;;;;;;;31.10;19.27;;;;;;;29.24;51.69;100083.72;5007238;28;20083;-69
2021/08/07 04:25:08;;;;;;;25.45;19.27;;;;;;;29.36;51.68;100081.97;5007574;28;22499;-67
2021/08/07 04:27:36;;;;;;;27.58;19.70;;;;;;;29.50;51.51;100079.13;5007715;28;20092;-69
2021/08/07 04:30:04;;;;;;;34.38;19.73;;;;;;;29.58;51.36;100087.59;5004660;28;20049;-66
2021/08/07 04:32:31;;;;;;;31.00;20.55;;;;;;;29.68;51.41;100094.09;5009386;28;20038;-70
2021/08/07 04:35:01;;;;;;;31.67;21.38;;;;;;;29.77;51.35;100095.25;5007044;28;20132;-69
2021/08/07 04:37:29;;;;;;;37.25;21.02;;;;;;;29.91;50.94;100098.69;5007911;28;20070;-71
2021/08/07 04:39:56;;;;;;;31.27;19.65;;;;;;;30.07;50.72;100109.31;5006688;28;20042;-71
2021/08/07 04:42:23;;;;;;;30.63;20.90;;;;;;;30.16;50.73;100110.47;5008088;28;20054;-71
2021/08/07 04:44:51;;;;;;;35.10;21.70;;;;;;;30.26;50.50;100111.53;5007778;28;20045;-69
2021/08/07 04:47:18;;;;;;;32.97;21.08;;;;;;;30.36;50.58;100109.81;5006394;28;20042;-70
2021/08/07 04:49:46;;;;;;;30.88;21.48;;;;;;;30.47;50.27;100107.13;5014935;28;20040;-70
2021/08/07 04:52:15;;;;;;;30.38;21.15;;;;;;;30.57;50.09;100116.38;5017696;28;20133;-69
2021/08/07 04:54:42;;;;;;;29.50;20.73;;;;;;;30.67;50.18;100122.84;5014415;28;20042;-69
2021/08/07 04:57:10;;;;;;;27.95;21.80;;;;;;;30.81;49.96;100124.47;5009890;28;20441;-69
2021/08/07 04:59:37;;;;;;;34.05;21.70;;;;;;;30.93;50.11;100117.19;5003452;28;20061;-69
2021/08/07 05:02:04;;;;;;;31.67;21.83;;;;;;;31.06;49.65;100126.16;5013507;28;20049;-67
2021/08/07 05:04:32;;;;;;;29.85;21.67;;;;;;;31.18;49.53;100123.31;5017480;28;20061;-69
2021/08/07 05:06:59;;;;;;;32.22;22.40;;;;;;;31.26;49.33;100115.41;5014898;28;20527;-69
2021/08/07 05:09:28;;;;;;;37.63;23.13;;;;;;;31.38;48.79;100129.91;5018083;28;20049;-69
2021/08/07 05:11:56;;;;;;;30.75;22.10;;;;;;;31.53;48.59;100136.00;5012049;28;20045;-69
2021/08/07 05:14:23;;;;;;;31.63;22.30;;;;;;;31.70;48.13;100142.84;5012592;28;20130;-70
2021/08/07 05:16:51;;;;;;;29.52;22.02;;;;;;;31.88;47.89;100130.41;5015642;28;20125;-71
2021/08/07 05:19:18;;;;;;;29.80;21.65;;;;;;;32.01;47.44;100137.44;5015325;28;20037;-70
2021/08/07 05:21:46;;;;;;;37.63;22.42;;;;;;;32.18;47.23;100143.38;5018249;28;20076;-71
2021/08/07 05:24:13;;;;;;;30.20;21.40;;;;;;;32.32;46.95;100154.88;5014008;28;20029;-70
2021/08/07 05:26:42;;;;;;;35.20;22.83;;;;;;;32.54;46.63;100145.72;5018558;28;20061;-70
2021/08/07 05:29:10;;;;;;;27.50;21.02;;;;;;;32.71;45.99;100144.31;5017545;28;20046;-70
2021/08/07 05:31:37;;;;;;;29.38;21.35;;;;;;;32.91;45.13;100145.31;5017747;28;20049;-70
2021/08/07 05:34:05;;;;;;;35.25;21.88;;;;;;;33.04;44.91;100154.16;5019884;28;20104;-69
2021/08/07 05:36:33;;;;;;;29.60;22.15;;;;;;;33.24;44.28;100150.59;5019805;28;20048;-70
2021/08/07 05:39:00;;;;;;;28.88;22.58;;;;;;;33.31;43.96;100151.78;5020242;28;20171;-71
2021/08/07 05:41:27;;;;;;;30.52;22.75;;;;;;;33.45;43.76;100150.53;5020823;28;20056;-71
2021/08/07 05:43:56;;;;;;;29.75;22.40;;;;;;;33.61;43.69;100157.22;5019028;28;20391;-70
2021/08/07 05:46:23;;;;;;;29.92;19.88;;;;;;;33.69;43.17;100159.28;5012322;28;20547;-70
2021/08/07 05:48:54;;;;;;;30.65;20.55;;;;;;;33.71;43.30;100157.31;5016948;28;20040;-71
2021/08/07 05:51:21;;;;;;;28.13;21.50;;;;;;;33.87;43.06;100162.28;5019012;28;20053;-70
2021/08/07 05:53:48;;;;;;;29.23;21.42;;;;;;;34.06;42.71;100159.59;5012753;28;20053;-71
2021/08/07 05:56:16;;;;;;;30.95;21.83;;;;;;;34.29;42.17;100168.44;5000476;28;20050;-70
2021/08/07 05:58:43;;;;;;;29.80;19.90;;;;;;;34.26;41.89;100164.13;5014006;28;20061;-71
2021/08/07 06:01:12;;;;;;;28.45;20.67;;;;;;;34.49;41.48;100169.31;5016596;28;20037;-70
2021/08/07 06:03:40;;;;;;;26.00;19.65;;;;;;;34.63;41.12;100178.00;5010466;28;20503;-70
2021/08/07 06:06:07;;;;;;;27.90;19.42;;;;;;;34.86;40.99;100169.47;5016259;28;20126;-70
2021/08/07 06:08:34;;;;;;;24.92;18.80;;;;;;;35.06;40.28;100163.81;4996931;28;20046;-69
2021/08/07 06:11:02;;;;;;;29.10;17.98;;;;;;;35.19;39.99;100169.84;5011172;28;20042;-70
2021/08/07 06:13:29;;;;;;;27.10;17.23;;;;;;;35.34;39.53;100172.16;5014826;28;20519;-71
2021/08/07 06:15:56;;;;;;;25.45;17.83;;;;;;;35.47;39.15;100181.81;5012015;28;20053;-70
2021/08/07 06:18:25;;;;;;;27.67;16.60;;;;;;;35.43;39.08;100185.88;5011719;28;23762;-70
2021/08/07 06:20:53;;;;;;;26.83;18.55;;;;;;;35.69;38.93;100182.44;5013923;28;20044;-71
2021/08/07 06:23:20;;;;;;;26.33;17.15;;;;;;;35.77;39.03;100188.09;5015209;28;20495;-71
2021/08/07 06:25:47;;;;;;;26.17;17.05;;;;;;;35.83;38.78;100190.22;5008375;28;20045;-71
2021/08/07 06:28:15;;;;;;;27.67;16.52;;;;;;;35.72;38.39;100196.75;5008893;28;20038;-70
2021/08/07 06:30:46;;;;;;;25.88;16.08;;;;;;;35.69;38.68;100190.69;5015996;28;20050;-70
2021/08/07 06:33:13;;;;;;;23.90;16.20;;;;;;;35.77;38.52;100185.34;5016088;28;20581;-71
2021/08/07 06:35:42;;;;;;;23.83;15.40;;;;;;;35.83;38.59;100179.22;5014475;28;20057;-71
2021/08/07 06:38:10;;;;;;;29.20;16.38;;;;;;;36.04;37.95;100188.06;5009036;28;20042;-71
2021/08/07 06:40:38;;;;;;;24.02;15.10;;;;;;;36.24;37.54;100180.59;5013028;28;20423;-70
2021/08/07 06:43:05;;;;;;;24.48;14.93;;;;;;;36.45;37.24;100183.06;5016065;28;20046;-69
2021/08/07 06:45:33;;;;;;;23.58;14.95;;;;;;;36.38;36.86;100185.56;5014427;28;20049;-70
2021/08/07 06:48:00;;;;;;;24.30;14.40;;;;;;;36.43;36.60;100191.47;5010114;28;20052;-71
2021/08/07 06:50:28;;;;;;;22.35;14.68;;;;;;;36.40;36.30;100196.41;5019197;28;20064;-71
2021/08/07 06:52:57;;;;;;;21.23;13.35;;;;;;;36.37;36.35;100199.47;5012802;28;20117;-70
2021/08/07 06:55:24;;;;;;;23.95;14.10;;;;;;;36.44;36.40;100197.81;5008449;28;20046;-70
2021/08/07 06:57:52;;;;;;;26.83;13.88;;;;;;;36.56;36.26;100196.59;5011986;28;20613;-70
2021/08/07 07:00:19;;;;;;;21.48;13.32;;;;;;;36.66;36.19;100201.03;5012658;28;20046;-71
2021/08/07 07:02:46;;;;;;;24.20;13.30;;;;;;;36.69;35.79;100214.44;5017325;28;20042;-70
2021/08/07 07:05:14;;;;;;;23.55;12.55;;;;;;;36.81;35.54;100212.34;5011319;28;20042;-71
2021/08/07 07:07:42;;;;;;;22.13;13.25;;;;;;;36.87;35.39;100219.09;5015168;28;20049;-70
2021/08/07 07:10:13;;;;;;;20.08;13.32;;;;;;;36.85;35.11;100222.00;5015568;28;20034;-71
2021/08/07 07:12:41;;;;;;;25.92;13.05;;;;;;;36.93;34.87;100221.22;5010004;28;20042;-70
2021/08/07 07:15:09;;;;;;;25.83;13.20;;;;;;;37.06;34.85;100221.69;5010733;28;20392;-70
2021/08/07 07:17:37;;;;;;;21.55;13.15;;;;;;;37.29;34.49;100231.16;5012706;28;20095;-70
2021/08/07 07:20:06;;;;;;;23.05;13.35;;;;;;;37.44;34.01;100223.19;5011165;28;20041;-71
2021/08/07 07:22:33;;;;;;;19.92;12.43;;;;;;;37.59;33.52;100218.00;5014603;28;20415;-71
2021/08/07 07:25:01;;;;;;;22.27;12.32;;;;;;;37.71;33.57;100219.44;5007299;28;20042;-70
2021/08/07 07:27:30;;;;;;;25.15;12.32;;;;;;;37.77;33.11;100221.53;5016313;28;20058;-69
2021/08/07 07:29:57;;;;;;;19.50;11.63;;;;;;;37.59;33.05;100229.88;5008655;28;20038;-71
2021/08/07 07:32:24;;;;;;;19.70;11.13;;;;;;;37.51;33.33;100233.41;5008485;28;20060;-69
2021/08/07 07:34:52;;;;;;;20.10;11.27;;;;;;;37.57;33.21;100236.53;5006804;28;20048;-70
2021/08/07 07:37:19;;;;;;;19.50;12.15;;;;;;;37.57;33.36;100239.28;4993685;28;20389;-69
2021/08/07 07:39:47;;;;;;;20.98;12.40;;;;;;;37.61;33.10;100251.78;5014323;28;20052;-70
2021/08/07 07:42:15;;;;;;;18.98;11.05;;;;;;;37.67;32.97;100251.13;5003999;28;20056;-70
2021/08/07 07:44:44;;;;;;;21.42;11.57;;;;;;;37.84;32.56;100261.19;5007431;28;20038;-70
2021/08/07 07:47:11;;;;;;;22.77;12.45;;;;;;;37.81;33.26;100262.38;5004906;28;20520;-70
2021/08/07 07:49:39;;;;;;;20.17;11.35;;;;;;;37.84;33.18;100270.34;5010894;28;20518;-70
2021/08/07 07:52:07;;;;;;;20.40;10.85;;;;;;;38.01;33.00;100271.28;5009090;28;20053;-70
2021/08/07 07:54:35;;;;;;;16.70;9.57;;;;;;;38.14;32.39;100265.31;5006955;28;20056;-70
2021/08/07 07:57:03;;;;;;;14.57;9.65;;;;;;;38.39;32.11;100269.06;5008525;28;20038;-70
2021/08/07 07:59:31;;;;;;;19.75;11.82;;;;;;;38.40;32.27;100266.13;5007790;28;20037;-70
2021/08/07 08:02:02;;;;;;;17.20;10.23;;;;;;;38.42;32.34;100269.59;5009697;28;20049;-70
2021/08/07 08:04:31;;;;;;;18.13;10.30;;;;;;;38.36;32.36;100272.16;5007941;28;20042;-70
2021/08/07 08:06:59;;;;;;;19.90;10.25;;;;;;;38.51;32.14;100284.31;5001530;28;20046;-71
2021/08/07 08:09:27;;;;;;;15.45;9.07;;;;;;;38.57;31.71;100281.75;4992606;28;20406;-70
2021/08/07 08:11:54;;;;;;;20.48;9.40;;;;;;;38.56;31.64;100291.06;5009060;28;20073;-69
2021/08/07 08:14:22;;;;;;;14.60;8.70;;;;;;;38.58;31.67;100291.75;5010011;28;20037;-69
2021/08/07 08:16:49;;;;;;;17.65;9.40;;;;;;;38.56;31.62;100291.06;5006256;28;20049;-69
2021/08/07 08:19:18;;;;;;;20.27;9.85;;;;;;;38.57;31.77;100286.41;5008629;28;20046;-69
2021/08/07 08:21:46;;;;;;;16.35;8.43;;;;;;;38.65;31.82;100303.88;5008871;28;20053;-70
2021/08/07 08:24:13;;;;;;;17.23;8.43;;;;;;;38.82;31.56;100309.41;5010672;28;20037;-69
2021/08/07 08:26:41;;;;;;;19.02;9.07;;;;;;;38.71;31.85;100302.31;5005164;28;20049;-70
2021/08/07 08:29:08;;;;;;;17.92;8.10;;;;;;;38.73;31.85;100316.78;5009303;28;20400;-68
2021/08/07 08:31:37;;;;;;;15.77;9.10;;;;;;;38.73;31.76;100316.78;5008064;28;20041;-69
2021/08/07 08:34:04;;;;;;;17.58;8.38;;;;;;;38.78;31.80;100316.31;5013654;28;20037;-69
2021/08/07 08:36:33;;;;;;;14.98;8.63;;;;;;;38.75;31.71;100308.34;5007850;28;20049;-68
2021/08/07 08:39:01;;;;;;;19.98;9.75;;;;;;;38.76;32.30;100305.44;5008815;28;20042;-69
2021/08/07 08:41:28;;;;;;;18.02;9.88;;;;;;;38.92;31.86;100308.28;5012547;28;20053;-69
2021/08/07 08:43:57;;;;;;;19.13;9.18;;;;;;;39.07;31.59;100313.97;5008591;28;20041;-69
2021/08/07 08:46:25;;;;;;;17.17;8.55;;;;;;;39.10;31.56;100319.16;5010493;28;20034;-69
2021/08/07 08:48:52;;;;;;;14.45;8.80;;;;;;;39.02;31.78;100316.38;5006667;28;20411;-69
2021/08/07 08:51:25;;;;;;;15.70;8.50;;;;;;;38.81;32.11;100325.09;5011588;28;20399;-69
2021/08/07 08:53:54;;;;;;;16.67;9.83;;;;;;;38.67;32.56;100323.00;5007020;28;20125;-69
2021/08/07 08:56:22;;;;;;;17.63;9.15;;;;;;;38.59;32.82;100317.47;5015539;28;20077;-70
2021/08/07 08:58:51;;;;;;;16.60;9.13;;;;;;;38.70;32.64;100319.03;5008283;28;20058;-69
2021/08/07 09:01:19;;;;;;;22.83;9.02;;;;;;;38.76;32.84;100327.50;5002534;28;20043;-69
2021/08/07 09:03:47;;;;;;;18.60;9.10;;;;;;;38.78;33.09;100335.63;5010721;28;20041;-70
2021/08/07 09:06:15;;;;;;;15.15;8.18;;;;;;;38.89;32.91;100327.91;5005754;28;20503;-70
2021/08/07 09:09:00;;;;;;;18.85;9.25;;;;;;;38.84;33.12;100344.13;5008400;28;20053;-69
2021/08/07 09:11:27;;;;;;;17.52;9.43;;;;;;;38.70;33.52;100332.84;5006531;28;20042;-70
2021/08/07 09:14:17;;;;;;;18.17;8.95;;;;;;;38.77;33.25;100351.34;5009775;28;20045;-70
2021/08/07 09:17:05;;;;;;;19.15;8.82;;;;;;;38.78;33.26;100352.19;5007999;28;20077;-70
2021/08/07 09:19:48;;;;;;;17.00;8.55;;;;;;;38.74;33.09;100362.69;5005232;28;20045;-70
2021/08/07 09:22:18;;;;;;;16.58;8.40;;;;;;;38.68;33.13;100358.72;5003870;28;20057;-70
2021/08/07 09:25:08;;;;;;;17.33;8.70;;;;;;;38.68;33.64;100361.47;5007218;28;20041;-70
2021/08/07 09:27:37;;;;;;;14.35;7.85;;;;;;;38.65;33.58;100353.56;5007683;28;20385;-69
2021/08/07 09:30:27;;;;;;;18.15;7.60;;;;;;;38.61;33.25;100346.63;5005280;28;20495;-71
2021/08/07 09:32:56;;;;;;;16.95;7.72;;;;;;;38.63;33.80;100358.38;5011277;28;20050;-69
2021/08/07 09:35:27;;;;;;;18.08;7.50;;;;;;;38.65;33.70;100364.59;5004327;28;20041;-69
2021/08/07 09:38:18;;;;;;;18.13;6.45;;;;;;;38.34;34.02;100366.13;5005784;28;20042;-71
2021/08/07 09:40:50;;;;;;;16.30;6.57;;;;;;;38.23;34.24;100358.13;5011542;28;20494;-70
2021/08/07 09:43:19;;;;;;;14.88;7.38;;;;;;;38.27;34.33;100365.91;5002205;28;20479;-69
2021/08/07 09:45:59;;;;;;;16.58;7.53;;;;;;;38.49;34.32;100356.22;5006389;28;20045;-67
2021/08/07 09:48:32;;;;;;;14.77;6.68;;;;;;;38.51;34.38;100365.22;5007781;28;20545;-70
2021/08/07 09:51:00;;;;;;;;;;;;;;;38.58;34.16;100370.94;5006431;28;20046;-69
2021/08/07 09:53:29;;;;;;;15.18;6.43;;;;;;;38.71;33.87;100364.94;5003787;28;19930;-70
2021/08/07 09:56:02;;;;;;;14.85;6.60;;;;;;;38.59;34.09;100359.75;5011356;28;20053;-69
2021/08/07 09:58:29;;;;;;;;;;;;;;;38.50;34.24;100355.19;5010442;28;20088;-70
2021/08/07 10:00:57;;;;;;;17.00;6.50;;;;;;;38.47;34.27;100366.53;5005241;28;20295;-70
2021/08/07 10:03:27;;;;;;;14.60;6.55;;;;;;;38.38;34.34;100344.59;5006358;28;20311;-69
2021/08/07 10:05:54;;;;;;;17.70;7.28;;;;;;;38.26;34.77;100344.91;5009076;28;20090;-70
2021/08/07 10:08:22;;;;;;;13.25;6.85;;;;;;;38.30;34.88;100356.44;5007873;28;20045;-70
2021/08/07 10:10:52;;;;;;;16.95;6.43;;;;;;;38.24;34.42;100366.25;5010918;28;20034;-70
2021/08/07 10:13:21;;;;;;;18.80;7.50;;;;;;;38.29;35.25;100361.09;5003184;28;20034;-70
2021/08/07 10:15:49;;;;;;;13.20;7.30;;;;;;;38.26;35.76;100371.63;5013058;28;20483;-73
2021/08/07 10:18:18;;;;;;;19.20;8.10;;;;;;;38.07;36.00;100369.09;5004510;28;20045;-70
2021/08/07 10:20:45;;;;;;;14.48;8.05;;;;;;;38.05;36.33;100360.97;5016263;28;20050;-70
2021/08/07 10:23:12;;;;;;;16.33;6.82;;;;;;;38.09;35.82;100361.50;5012379;28;20042;-70
2021/08/07 10:25:45;;;;;;;15.52;7.15;;;;;;;38.06;35.84;100379.25;5011054;28;20065;-69
2021/08/07 10:28:14;;;;;;;16.60;7.13;;;;;;;38.14;36.43;100376.53;5013522;28;20042;-70
2021/08/07 10:30:45;;;;;;;17.85;7.60;;;;;;;38.13;36.31;100371.19;5019346;28;20061;-69
2021/08/07 10:33:14;;;;;;;18.42;7.43;;;;;;;38.02;35.92;100371.41;5013341;28;20084;-70
2021/08/07 10:35:42;;;;;;;12.45;6.35;;;;;;;38.00;35.80;100374.34;5020068;28;20558;-69
2021/08/07 10:38:10;;;;;;;20.27;7.65;;;;;;;37.97;35.88;100379.31;5014681;28;20045;-70
2021/08/07 10:40:37;;;;;;;15.73;6.60;;;;;;;37.91;36.12;100375.31;5011131;28;20081;-70
2021/08/07 10:43:07;;;;;;;18.45;7.05;;;;;;;37.81;35.80;100372.66;5009443;28;20101;-69
2021/08/07 10:45:35;;;;;;;15.00;6.50;;;;;;;37.60;36.66;100374.91;5012285;28;20038;-69
2021/08/07 10:48:04;;;;;;;16.17;7.07;;;;;;;37.51;36.73;100365.66;5008995;28;20042;-69
2021/08/07 10:50:36;;;;;;;12.57;7.07;;;;;;;37.45;37.30;100363.56;5010027;28;20049;-70
2021/08/07 10:53:06;;;;;;;15.32;6.80;;;;;;;37.43;37.15;100360.09;5010431;28;20174;-70
2021/08/07 10:55:47;;;;;;;18.63;7.22;;;;;;;37.59;37.08;100370.41;5017212;28;20053;-71
2021/08/07 10:58:39;;;;;;;20.75;7.63;;;;;;;37.62;37.01;100378.34;5006438;28;20053;-70
2021/08/07 11:01:31;;;;;;;18.05;7.75;;;;;;;37.66;36.41;100384.44;5011118;28;20054;-69
2021/08/07 11:04:18;;;;;;;22.58;6.97;;;;;;;37.60;36.50;100385.06;5006294;28;20057;-69
2021/08/07 11:06:51;;;;;;;16.63;7.15;;;;;;;37.33;37.01;100384.09;5016309;28;20037;-69
2021/08/07 11:09:22;;;;;;;18.88;7.20;;;;;;;37.50;36.76;100383.22;5003944;28;20041;-69
2021/08/07 11:11:51;;;;;;;14.02;6.50;;;;;;;37.68;36.24;100374.13;4989345;28;20042;-69
2021/08/07 11:15:05;;;;;;;18.40;6.90;;;;;;;37.64;36.17;100375.44;5003356;28;20044;-70
2021/08/07 11:17:38;;;;;;;14.18;6.72;;;;;;;37.74;35.64;100355.06;4944303;29;20047;-69
2021/08/07 11:20:13;;;;;;;19.02;7.38;;;;;;;37.87;35.85;100380.31;5005715;28;20046;-70
2021/08/07 11:23:09;;;;;;;16.73;6.75;;;;;;;38.05;35.52;100388.56;5012049;28;20048;-69
2021/08/07 11:26:11;;;;;;;19.08;7.10;;;;;;;38.17;35.17;100378.97;5009174;28;20552;-68